Time;durP1;ratioP1;P1;durP2;ratioP2;P2;SDS_P1;SDS_P2;PMS_P1;PMS_P2;Temp;Humidity;BMP_temperature;BMP_pressure;BME280_temperature;BME280_humidity;BME280_pressure;Samples;Min_cycle;Max_cycle;Signal;HPM_P1;HPM_P2
2022/08/26 00:01:29;;;;;;;12.33;8.18;;;;;;;23.86;100.00;99529.00;1678896;85;21016;-72
2022/08/26 00:04:00;;;;;;;11.10;7.12;;;;;;;23.81;100.00;99531.05;1684270;83;21778;-75
2022/08/26 00:06:26;;;;;;;14.95;7.87;;;;;;;23.72;100.00;99525.07;1688844;85;20950;-75
2022/08/26 00:08:53;;;;;;;13.15;8.23;;;;;;;23.74;100.00;99528.87;1642417;86;20963;-76
2022/08/26 00:11:19;;;;;;;12.75;7.08;;;;;;;23.70;100.00;99524.67;1659707;86;21139;-76
2022/08/26 00:13:47;;;;;;;15.80;7.55;;;;;;;23.68;100.00;99528.50;1656587;85;20983;-76
2022/08/26 00:16:14;;;;;;;11.38;7.05;;;;;;;23.64;100.00;99530.55;1659649;86;21002;-71
2022/08/26 00:18:46;;;;;;;13.00;7.85;;;;;;;23.61;100.00;99527.15;1642277;86;21491;-75
2022/08/26 00:21:15;;;;;;;12.35;6.87;;;;;;;23.58;100.00;99523.94;1659619;86;20998;-73
2022/08/26 00:23:46;;;;;;;13.80;6.62;;;;;;;23.51;100.00;99526.00;1657161;86;21014;-75
2022/08/26 00:26:13;;;;;;;24.67;7.08;;;;;;;23.45;100.00;99523.62;1642802;86;21015;-72
2022/08/26 00:28:40;;;;;;;15.55;7.42;;;;;;;23.41;100.00;99525.62;1659701;85;21025;-74
2022/08/26 00:31:09;;;;;;;15.05;7.45;;;;;;;23.40;100.00;99523.20;1656796;86;21562;-72
2022/08/26 00:33:36;;;;;;;10.10;7.40;;;;;;;23.42;100.00;99525.81;1659603;86;20891;-69
2022/08/26 00:36:03;;;;;;;11.48;6.95;;;;;;;23.38;100.00;99518.59;1659962;85;21519;-72
2022/08/26 00:38:30;;;;;;;9.75;6.78;;;;;;;23.37;100.00;99522.62;1659516;85;20982;-73
2022/08/26 00:40:59;;;;;;;13.95;7.53;;;;;;;23.33;100.00;99518.41;1659513;85;21045;-71
2022/08/26 00:43:28;;;;;;;17.45;8.38;;;;;;;23.31;100.00;99516.61;1659527;86;20942;-74
2022/08/26 00:46:03;;;;;;;12.88;7.53;;;;;;;23.30;100.00;99519.23;1659732;86;21010;-72
2022/08/26 00:48:32;;;;;;;9.55;6.58;;;;;;;23.31;100.00;99516.02;1659648;86;21251;-76
2022/08/26 00:51:07;;;;;;;15.65;6.72;;;;;;;23.27;100.00;99512.41;1659497;85;20942;-72
2022/08/26 00:53:38;;;;;;;12.80;6.70;;;;;;;23.26;100.00;99511.41;1673918;85;21027;-72
2022/08/26 00:56:11;;;;;;;12.28;6.53;;;;;;;23.36;100.00;99509.16;1680575;85;21635;-74
2022/08/26 00:58:37;;;;;;;11.70;6.10;;;;;;;23.45;100.00;99511.56;1680364;85;20937;-71
2022/08/26 01:01:05;;;;;;;11.97;6.53;;;;;;;23.51;100.00;99507.73;1680251;85;21109;-75
2022/08/26 01:03:32;;;;;;;13.38;6.92;;;;;;;23.59;100.00;99502.27;1680166;85;20956;-76
2022/08/26 01:06:02;;;;;;;11.35;7.20;;;;;;;23.66;100.00;99500.80;1680169;85;21072;-73
2022/08/26 01:08:37;;;;;;;10.45;6.00;;;;;;;23.67;100.00;99498.79;1679322;85;20956;-73
2022/08/26 01:11:04;;;;;;;9.45;5.75;;;;;;;23.75;100.00;99501.75;1680277;85;20952;-73
2022/08/26 01:13:32;;;;;;;9.73;6.17;;;;;;;23.83;100.00;99500.48;1677946;85;20964;-73
2022/08/26 01:16:01;;;;;;;14.10;7.25;;;;;;;23.87;100.00;99501.06;1655436;85;21035;-72
2022/08/26 01:18:28;;;;;;;9.90;6.10;;;;;;;23.91;100.00;99503.25;1680096;85;21537;-75
2022/08/26 01:21:27;;;;;;;8.75;6.33;;;;;;;24.00;100.00;99501.39;1680155;85;21462;-71
2022/08/26 01:23:54;;;;;;;16.60;6.33;;;;;;;24.00;100.00;99495.77;1680128;85;20921;-73
2022/08/26 01:26:28;;;;;;;10.32;6.17;;;;;;;24.02;100.00;99497.56;1680113;85;21102;-72
2022/08/26 01:28:57;;;;;;;8.03;5.85;;;;;;;24.06;100.00;99493.50;1680127;85;21007;-73
2022/08/26 01:31:27;;;;;;;10.10;6.03;;;;;;;24.06;100.00;99493.50;1680150;85;21502;-71
2022/08/26 01:34:25;;;;;;;12.50;6.10;;;;;;;24.10;100.00;99494.89;1680419;85;21028;-72
2022/08/26 01:37:23;;;;;;;10.93;6.37;;;;;;;24.12;100.00;99492.44;1676470;85;21083;-72
2022/08/26 01:39:52;;;;;;;9.18;6.08;;;;;;;24.09;100.00;99489.67;1680401;85;21122;-76
2022/08/26 01:42:23;;;;;;;13.10;6.47;;;;;;;24.10;100.00;99496.30;1680068;85;21064;-73
2022/08/26 01:45:04;;;;;;;9.78;6.17;;;;;;;24.14;100.00;99487.83;1680227;85;20980;-73
2022/08/26 01:47:35;;;;;;;8.95;6.20;;;;;;;24.16;100.00;99486.18;1679982;85;21019;-73
2022/08/26 01:50:16;;;;;;;12.03;6.50;;;;;;;24.17;100.00;99482.80;1680569;84;21076;-74
2022/08/26 01:52:45;;;;;;;12.53;6.53;;;;;;;24.13;100.00;99481.98;1680173;85;21175;-76
2022/08/26 01:55:14;;;;;;;10.40;6.60;;;;;;;24.14;100.00;99480.16;1680321;85;21016;-73
2022/08/26 01:57:43;;;;;;;9.95;6.22;;;;;;;24.14;100.00;99475.16;1655394;85;21478;-72
2022/08/26 02:00:12;;;;;;;20.68;7.22;;;;;;;24.13;100.00;99479.98;1680370;85;21004;-73
2022/08/26 02:02:46;;;;;;;11.88;6.12;;;;;;;24.13;100.00;99481.39;1670282;84;20954;-75
2022/08/26 02:05:17;;;;;;;11.55;6.50;;;;;;;24.12;100.00;99483.22;1671083;86;21874;-73
2022/08/26 02:07:54;;;;;;;13.98;5.78;;;;;;;24.13;100.00;99483.39;1671107;85;20905;-76
2022/08/26 02:10:21;;;;;;;9.78;6.53;;;;;;;24.10;100.00;99482.22;1670979;86;20989;-76
2022/08/26 02:12:52;;;;;;;10.13;6.03;;;;;;;24.09;100.00;99478.42;1670901;86;21048;-73
2022/08/26 02:15:33;;;;;;;17.10;7.47;;;;;;;24.08;100.00;99473.39;1666184;84;20881;-73
2022/08/26 02:17:59;;;;;;;10.70;5.80;;;;;;;24.06;100.00;99469.59;1670708;86;21509;-71
2022/08/26 02:20:28;;;;;;;7.80;6.25;;;;;;;24.04;100.00;99476.83;1670753;86;20897;-73
2022/08/26 02:22:55;;;;;;;14.00;6.35;;;;;;;24.02;100.00;99477.24;1670988;86;20942;-77
2022/08/26 02:25:41;;;;;;;12.55;6.22;;;;;;;24.00;100.00;99473.26;1670849;86;20992;-72
2022/08/26 02:28:10;;;;;;;11.70;6.45;;;;;;;23.99;100.00;99473.86;1671045;86;20977;-73
2022/08/26 02:30:42;;;;;;;9.65;5.83;;;;;;;23.97;100.00;99476.91;1670936;86;20977;-73
2022/08/26 02:33:10;;;;;;;11.12;6.08;;;;;;;23.94;100.00;99481.33;1667096;86;21013;-76
2022/08/26 02:35:36;;;;;;;7.10;5.62;;;;;;;23.92;100.00;99476.72;1671051;86;21526;-77
2022/08/26 02:38:10;;;;;;;10.90;7.05;;;;;;;23.84;100.00;99474.58;1668070;86;20917;-73
2022/08/26 02:40:42;;;;;;;10.48;6.05;;;;;;;23.80;100.00;99476.00;1671032;86;20933;-76
2022/08/26 02:43:13;;;;;;;11.25;6.30;;;;;;;23.78;100.00;99477.02;1669977;85;21048;-73
2022/08/26 02:45:40;;;;;;;8.50;5.92;;;;;;;23.76;100.00;99480.87;1670876;86;20917;-76
2022/08/26 02:48:13;;;;;;;13.72;6.35;;;;;;;23.76;100.00;99481.47;1670918;86;20865;-75
2022/08/26 02:50:40;;;;;;;14.85;6.40;;;;;;;23.75;100.00;99479.88;1670884;86;21048;-78
2022/08/26 02:53:07;;;;;;;8.05;5.95;;;;;;;23.76;100.00;99481.47;1671163;86;20997;-76
2022/08/26 02:55:36;;;;;;;14.23;6.17;;;;;;;23.77;100.00;99486.67;1670770;86;21068;-77
2022/08/26 02:58:04;;;;;;;11.80;6.47;;;;;;;23.76;100.00;99480.87;1670731;86;21060;-75
2022/08/26 03:00:38;;;;;;;15.43;5.87;;;;;;;23.75;100.00;99486.91;1668573;86;20862;-71
2022/08/26 03:03:07;;;;;;;10.65;6.62;;;;;;;23.74;100.00;99481.88;1670931;84;21431;-72
2022/08/26 03:05:34;;;;;;;13.45;6.67;;;;;;;23.73;100.00;99490.10;1671132;86;21004;-71
2022/08/26 03:08:00;;;;;;;7.42;5.47;;;;;;;23.67;100.00;99488.95;1671064;86;21909;-72
2022/08/26 03:10:30;;;;;;;16.00;7.42;;;;;;;23.69;100.00;99482.31;1671011;86;21016;-76
2022/08/26 03:12:59;;;;;;;14.15;6.78;;;;;;;23.68;100.00;99485.72;1671124;86;21465;-73
2022/08/26 03:15:26;;;;;;;11.65;6.50;;;;;;;23.64;100.00;99494.80;1671034;86;20969;-73
2022/08/26 03:17:53;;;;;;;13.25;5.80;;;;;;;23.63;100.00;99487.56;1671108;86;20992;-71
2022/08/26 03:20:21;;;;;;;15.68;6.33;;;;;;;23.64;100.00;99490.58;1655437;86;21211;-77
2022/08/26 03:22:51;;;;;;;12.18;5.78;;;;;;;23.66;100.00;99490.17;1671007;86;20866;-73
2022/08/26 03:25:21;;;;;;;15.72;6.92;;;;;;;23.66;100.00;99500.80;1678461;85;21044;-74
2022/08/26 03:27:49;;;;;;;12.18;6.33;;;;;;;23.66;100.00;99499.38;1673970;84;21100;-72
2022/08/26 03:33:01;;;;;;;10.40;6.72;;;;;;;23.71;100.00;99496.77;1671156;86;21252;-73
2022/08/26 03:35:32;;;;;;;13.60;6.22;;;;;;;23.71;100.00;99491.14;1668410;86;20989;-72
2022/08/26 03:38:00;;;;;;;14.30;6.28;;;;;;;23.70;100.00;99495.95;1671039;86;21033;-73
2022/08/26 03:40:32;;;;;;;7.53;5.75;;;;;;;23.71;100.00;99503.17;1668464;86;21017;-76
2022/08/26 03:43:00;;;;;;;8.38;6.10;;;;;;;23.74;100.00;99500.16;1671088;86;21032;-77
2022/08/26 03:45:34;;;;;;;9.90;6.92;;;;;;;23.75;100.00;99496.75;1668563;86;20909;-76
2022/08/26 03:48:02;;;;;;;8.53;5.87;;;;;;;23.78;100.00;99497.33;1655217;85;21143;-77
2022/08/26 03:50:34;;;;;;;11.22;5.37;;;;;;;23.81;100.00;99494.49;1666195;86;20988;-76
2022/08/26 03:53:01;;;;;;;11.85;5.83;;;;;;;23.86;100.00;99498.06;1671166;86;21053;-78
2022/08/26 03:55:37;;;;;;;10.68;5.15;;;;;;;23.84;100.00;99495.67;1668418;86;20961;-77
2022/08/26 03:58:05;;;;;;;10.18;6.00;;;;;;;23.86;100.00;99496.06;1671073;84;21132;-74
2022/08/26 04:00:37;;;;;;;10.35;5.78;;;;;;;23.91;100.00;99494.22;1668735;86;20901;-77
2022/08/26 04:03:07;;;;;;;11.85;5.87;;;;;;;23.93;100.00;99488.18;1672571;85;21020;-77
2022/08/26 04:05:35;;;;;;;16.95;6.12;;;;;;;23.94;100.00;99484.95;1676187;85;21079;-72
2022/08/26 04:08:04;;;;;;;13.55;6.20;;;;;;;24.00;100.00;99483.11;1680692;85;20992;-76
2022/08/26 04:10:31;;;;;;;13.98;5.40;;;;;;;24.01;100.00;99486.91;1680184;85;21214;-73
2022/08/26 04:12:59;;;;;;;17.00;6.30;;;;;;;24.05;100.00;99477.81;1680204;85;21055;-76
2022/08/26 04:15:27;;;;;;;10.93;5.40;;;;;;;24.06;100.00;99478.62;1655591;85;20976;-73
2022/08/26 04:18:04;;;;;;;9.88;5.30;;;;;;;24.08;100.00;99471.98;1651881;85;21434;-77
2022/08/26 04:20:33;;;;;;;8.53;5.53;;;;;;;24.11;100.00;99471.75;1680381;83;21557;-77
2022/08/26 04:23:03;;;;;;;11.60;5.33;;;;;;;24.16;100.00;99479.75;1680442;84;21149;-77
2022/08/26 04:25:31;;;;;;;10.90;5.55;;;;;;;24.18;100.00;99478.76;1680196;85;21552;-76
2022/08/26 04:28:01;;;;;;;13.25;5.72;;;;;;;24.18;100.00;99478.76;1680026;84;20909;-77
2022/08/26 04:30:28;;;;;;;8.43;5.58;;;;;;;24.21;100.00;99475.11;1678056;85;21639;-77
2022/08/26 04:33:03;;;;;;;8.85;5.40;;;;;;;24.24;100.00;99476.31;1676213;85;20964;-76
2022/08/26 04:35:33;;;;;;;13.65;6.42;;;;;;;24.25;100.00;99474.48;1680632;85;21759;-73
2022/08/26 04:37:59;;;;;;;13.03;6.20;;;;;;;24.28;100.00;99477.87;1680040;85;21028;-76
2022/08/26 04:40:27;;;;;;;15.13;4.95;;;;;;;24.28;100.00;99484.91;1680152;85;21591;-73
2022/08/26 04:42:54;;;;;;;13.18;5.37;;;;;;;24.29;100.00;99473.83;1680216;85;20952;-78
2022/08/26 04:45:21;;;;;;;13.43;5.58;;;;;;;24.37;100.00;99480.20;1680362;85;21072;-79
2022/08/26 04:47:47;;;;;;;11.63;5.25;;;;;;;24.39;100.00;99472.75;1680101;85;21115;-76
2022/08/26 04:50:26;;;;;;;13.80;5.55;;;;;;;24.42;100.00;99473.32;1679809;85;21454;-72
2022/08/26 04:52:54;;;;;;;14.55;5.80;;;;;;;24.50;100.00;99474.03;1680508;84;21021;-77
2022/08/26 04:55:21;;;;;;;12.78;5.37;;;;;;;24.54;100.00;99469.98;1680249;85;21009;-77
2022/08/26 04:57:55;;;;;;;14.13;5.78;;;;;;;24.56;100.00;99478.02;1678595;85;21035;-75
2022/08/26 05:00:22;;;;;;;15.63;5.55;;;;;;;24.62;99.65;99469.89;1680230;85;21138;-77
2022/08/26 05:02:49;;;;;;;10.18;5.97;;;;;;;24.68;99.54;99472.46;1680119;84;20991;-76
2022/08/26 05:05:18;;;;;;;11.60;5.70;;;;;;;24.76;97.94;99473.98;1668547;85;21009;-77
2022/08/26 05:07:44;;;;;;;11.35;5.37;;;;;;;24.80;97.41;99469.72;1671254;86;20941;-78
2022/08/26 05:10:14;;;;;;;14.43;6.50;;;;;;;24.84;97.55;99469.69;1671204;86;21060;-72
2022/08/26 05:12:46;;;;;;;11.80;5.35;;;;;;;24.92;97.58;99471.22;1668485;86;21509;-74
2022/08/26 05:15:14;;;;;;;9.58;5.20;;;;;;;25.01;97.06;99476.36;1670321;85;20957;-78
2022/08/26 05:17:45;;;;;;;9.78;5.25;;;;;;;25.04;97.02;99475.51;1671161;86;20978;-76
2022/08/26 05:20:11;;;;;;;48.80;6.95;;;;;;;25.09;95.94;99471.42;1671589;85;21076;-76
2022/08/26 05:22:39;;;;;;;31.02;6.45;;;;;;;25.13;95.63;99476.41;1671154;86;21001;-73
2022/08/26 05:25:09;;;;;;;18.75;6.10;;;;;;;25.18;93.82;99473.73;1671277;86;21167;-76
2022/08/26 05:27:36;;;;;;;12.07;5.80;;;;;;;25.24;92.36;99474.25;1671422;85;20934;-73
2022/08/26 05:30:09;;;;;;;14.50;5.67;;;;;;;25.30;90.61;99476.59;1671105;86;21675;-73
2022/08/26 05:32:39;;;;;;;13.83;5.60;;;;;;;25.32;89.95;99474.94;1671347;85;20917;-76
2022/08/26 05:35:22;;;;;;;9.00;5.40;;;;;;;25.40;90.56;99471.43;1652204;86;20905;-72
2022/08/26 05:37:52;;;;;;;23.92;6.22;;;;;;;25.47;90.38;99469.12;1655799;86;21404;-77
2022/08/26 05:40:25;;;;;;;34.70;7.03;;;;;;;25.53;90.31;99468.22;1655530;86;21546;-77
2022/08/26 05:42:52;;;;;;;21.17;6.70;;;;;;;25.61;90.52;99473.73;1671477;85;21064;-78
2022/08/26 05:45:22;;;;;;;15.10;6.22;;;;;;;25.63;88.54;99477.77;1671178;86;21084;-73
2022/08/26 05:47:48;;;;;;;16.25;5.58;;;;;;;25.68;88.04;99479.31;1671406;85;20957;-77
2022/08/26 05:50:15;;;;;;;12.45;5.40;;;;;;;25.73;88.94;99470.97;1671201;86;21085;-78
2022/08/26 05:52:41;;;;;;;16.10;5.42;;;;;;;25.80;88.49;99474.30;1671050;85;20953;-77
2022/08/26 05:55:16;;;;;;;20.02;5.95;;;;;;;25.88;87.84;99480.00;1668572;86;21064;-78
2022/08/26 05:57:44;;;;;;;11.97;4.50;;;;;;;25.92;86.55;99477.94;1671180;86;21092;-77
2022/08/26 06:00:14;;;;;;;26.90;5.40;;;;;;;25.95;87.20;99479.90;1671312;85;21194;-78
2022/08/26 06:02:41;;;;;;;16.17;5.65;;;;;;;26.02;86.50;99487.45;1671214;86;21494;-79
2022/08/26 06:05:11;;;;;;;14.18;5.28;;;;;;;26.12;86.67;99482.25;1672985;85;20968;-77
2022/08/26 06:10:22;;;;;;;15.38;5.25;;;;;;;26.25;86.73;99482.42;1641384;85;20969;-78
2022/08/26 06:12:48;;;;;;;22.70;5.42;;;;;;;26.36;84.34;99491.35;1673500;85;21052;-76
2022/08/26 06:15:15;;;;;;;18.85;5.95;;;;;;;26.48;83.15;99480.05;1673325;85;21121;-73
2022/08/26 06:17:41;;;;;;;23.25;5.55;;;;;;;26.50;80.87;99477.59;1710304;84;20987;-77
2022/08/26 06:20:10;;;;;;;20.97;5.80;;;;;;;26.49;81.39;99481.03;1710243;84;20918;-76
2022/08/26 06:25:39;;;;;;;22.98;4.87;;;;;;;26.64;80.98;99477.14;1694657;84;20867;-76
2022/08/26 06:28:07;;;;;;;25.15;5.97;;;;;;;26.73;80.09;99476.75;1710022;84;21146;-73
2022/08/26 06:30:41;;;;;;;19.05;6.00;;;;;;;26.80;79.90;99480.05;1706108;84;20868;-78
2022/08/26 06:33:08;;;;;;;13.18;5.22;;;;;;;26.83;78.87;99478.41;1684833;84;20939;-77
2022/08/26 06:35:39;;;;;;;13.60;5.87;;;;;;;26.91;78.37;99479.86;1710389;84;21427;-79
2022/08/26 06:38:08;;;;;;;11.95;5.50;;;;;;;26.99;78.19;99480.49;1710269;84;20951;-75
2022/08/26 06:40:47;;;;;;;19.05;5.47;;;;;;;26.99;78.30;99476.25;1710203;82;21061;-76
2022/08/26 06:43:16;;;;;;;11.22;5.53;;;;;;;27.03;77.86;99481.87;1710187;82;21037;-78
2022/08/26 06:45:45;;;;;;;24.65;5.62;;;;;;;27.09;77.92;99475.27;1710194;84;20983;-76
2022/08/26 06:48:18;;;;;;;105.47;11.43;;;;;;;27.18;78.58;99477.52;1708317;83;20847;-73
2022/08/26 06:50:54;;;;;;;37.93;6.50;;;;;;;27.25;76.93;99465.86;1710289;84;20986;-78
2022/08/26 06:53:26;;;;;;;22.40;5.95;;;;;;;27.33;76.58;99471.56;1685421;84;21250;-75
2022/08/26 06:55:54;;;;;;;13.83;5.50;;;;;;;27.43;76.52;99468.31;1710205;84;20954;-75
2022/08/26 06:58:22;;;;;;;18.57;5.58;;;;;;;27.52;76.20;99467.08;1710219;84;20983;-75
2022/08/26 07:00:48;;;;;;;15.30;5.08;;;;;;;27.57;74.10;99465.76;1710062;84;20926;-77
2022/08/26 07:03:14;;;;;;;12.90;4.87;;;;;;;27.65;72.50;99460.14;1710263;84;21019;-77
2022/08/26 07:05:47;;;;;;;9.45;5.22;;;;;;;27.73;72.09;99461.39;1708069;83;21095;-79
2022/08/26 07:08:15;;;;;;;22.95;5.42;;;;;;;27.81;73.08;99462.81;1708018;84;20960;-77
2022/08/26 07:10:58;;;;;;;43.40;7.20;;;;;;;27.85;72.25;99459.28;1707861;84;20868;-76
2022/08/26 07:13:25;;;;;;;23.85;4.80;;;;;;;27.92;69.60;99471.05;1707114;82;20980;-76
2022/08/26 07:15:57;;;;;;;18.80;4.53;;;;;;;28.00;69.53;99491.47;1707782;83;20887;-78
2022/08/26 07:18:24;;;;;;;12.68;5.03;;;;;;;28.07;70.66;99480.78;1707980;84;21261;-77
2022/08/26 07:20:59;;;;;;;16.73;6.28;;;;;;;28.16;70.64;99489.27;1708060;84;20899;-78
2022/08/26 07:23:44;;;;;;;24.82;4.50;;;;;;;28.22;68.08;99480.41;1704925;84;21031;-77
2022/08/26 07:26:18;;;;;;;22.15;5.15;;;;;;;28.32;68.09;99484.20;1691983;84;20951;-73
2022/08/26 07:28:46;;;;;;;21.10;5.37;;;;;;;28.39;68.50;99479.80;1707823;84;20903;-76
2022/08/26 07:31:28;;;;;;;16.87;5.70;;;;;;;28.49;68.36;99482.81;1689204;84;21009;-73
2022/08/26 07:33:56;;;;;;;21.95;5.53;;;;;;;28.56;67.61;99484.02;1707512;82;20915;-72
2022/08/26 07:36:29;;;;;;;17.73;4.72;;;;;;;28.63;68.70;99484.44;1707992;84;21440;-76
2022/08/26 07:38:57;;;;;;;23.10;5.05;;;;;;;28.72;68.30;99475.30;1707781;83;20940;-75
2022/08/26 07:41:24;;;;;;;20.23;6.75;;;;;;;28.80;67.47;99474.66;1708558;84;20882;-74
2022/08/26 07:43:52;;;;;;;14.38;4.70;;;;;;;28.89;65.38;99483.93;1708235;84;21063;-72
2022/08/26 07:46:20;;;;;;;18.98;5.12;;;;;;;28.95;64.40;99474.87;1707994;84;20938;-71
2022/08/26 07:48:47;;;;;;;32.85;7.20;;;;;;;29.02;64.89;99472.66;1708456;84;21412;-73
2022/08/26 07:51:16;;;;;;;19.90;5.37;;;;;;;29.10;63.68;99471.03;1707945;84;20979;-70
2022/08/26 07:53:52;;;;;;;16.40;5.15;;;;;;;29.16;62.53;99470.64;1705052;84;21523;-75
2022/08/26 07:56:19;;;;;;;16.07;4.58;;;;;;;29.25;62.70;99462.89;1707823;82;21487;-74
2022/08/26 07:58:59;;;;;;;17.37;4.70;;;;;;;29.32;62.74;99460.45;1707794;83;21353;-78
2022/08/26 08:01:25;;;;;;;15.95;5.03;;;;;;;29.38;61.96;99449.52;1707980;83;20983;-73
2022/08/26 08:03:52;;;;;;;8.60;3.70;;;;;;;29.48;62.35;99449.65;1708275;84;20967;-72
2022/08/26 08:06:20;;;;;;;44.73;5.35;;;;;;;29.58;63.20;99454.16;1678647;83;21020;-76
2022/08/26 08:08:47;;;;;;;28.62;5.47;;;;;;;29.69;64.59;99450.22;1678010;85;21277;-73
2022/08/26 08:11:26;;;;;;;21.00;5.15;;;;;;;29.80;64.13;99448.46;1677989;85;21406;-74
2022/08/26 08:13:54;;;;;;;21.85;5.20;;;;;;;29.91;64.20;99453.80;1678072;84;20905;-74
2022/08/26 08:16:21;;;;;;;13.62;4.22;;;;;;;30.00;63.77;99447.58;1678330;85;21021;-78
2022/08/26 08:18:47;;;;;;;16.12;4.62;;;;;;;30.08;61.72;99450.96;1678186;85;20874;-74
2022/08/26 08:21:15;;;;;;;12.37;4.42;;;;;;;30.13;60.31;99443.28;1677955;85;21096;-73
2022/08/26 08:23:42;;;;;;;25.75;4.45;;;;;;;30.19;58.51;99434.98;1677943;84;20987;-76
2022/08/26 08:26:19;;;;;;;12.95;4.70;;;;;;;30.27;56.84;99441.84;1678248;85;20989;-76
2022/08/26 08:28:48;;;;;;;11.05;4.12;;;;;;;30.33;56.89;99442.22;1675314;85;21525;-75
2022/08/26 08:31:24;;;;;;;17.73;4.12;;;;;;;30.41;56.15;99437.09;1677989;85;21147;-74
2022/08/26 08:33:54;;;;;;;14.95;4.30;;;;;;;30.48;55.92;99440.31;1678255;85;21114;-73
2022/08/26 08:36:21;;;;;;;10.48;4.05;;;;;;;30.55;55.16;99433.58;1678074;85;21537;-73
2022/08/26 08:38:51;;;;;;;11.35;4.00;;;;;;;30.65;55.81;99430.17;1677662;85;21120;-77
2022/08/26 08:41:49;;;;;;;13.25;4.25;;;;;;;30.73;56.49;99432.91;1678079;85;20992;-74
2022/08/26 08:44:21;;;;;;;18.87;3.67;;;;;;;30.83;56.35;99430.95;1677301;85;21060;-73
2022/08/26 08:47:09;;;;;;;23.45;5.15;;;;;;;30.94;54.08;99432.78;1677897;84;21013;-75
2022/08/26 08:49:42;;;;;;;17.90;4.15;;;;;;;31.03;52.51;99429.83;1671592;85;20991;-75
2022/08/26 08:52:23;;;;;;;13.32;3.72;;;;;;;31.07;50.70;99428.42;1678004;85;21075;-73
2022/08/26 08:54:51;;;;;;;11.38;3.37;;;;;;;31.14;49.37;99427.97;1677790;84;21036;-77
2022/08/26 08:57:45;;;;;;;24.02;4.55;;;;;;;31.19;50.50;99418.83;1678028;85;21028;-77
2022/08/26 09:00:23;;;;;;;;;;;;;;;31.30;50.81;99415.58;1679863;85;21187;-71
2022/08/26 09:03:19;;;;;;;18.02;3.62;;;;;;;31.39;49.51;99423.36;1678008;85;20159;-77
2022/08/26 09:10:10;;;;;;;17.07;3.65;;;;;;;31.52;46.83;99411.27;1527748;92;21190;-74
2022/08/26 09:12:58;;;;;;;20.55;3.90;;;;;;;31.58;45.44;99407.16;1583379;89;20959;-74
2022/08/26 09:16:07;;;;;;;14.28;3.42;;;;;;;31.61;44.44;99401.98;1610369;85;21041;-76
2022/08/26 09:19:03;;;;;;;13.83;3.50;;;;;;;31.67;44.00;99405.78;1708532;82;20935;-72
2022/08/26 09:21:32;;;;;;;20.17;3.92;;;;;;;31.76;44.50;99397.09;1710454;84;20907;-77
2022/08/26 09:24:17;;;;;;;6.45;2.75;;;;;;;31.87;44.43;99396.00;1677770;84;21471;-74
2022/08/26 09:26:48;;;;;;;9.88;3.20;;;;;;;31.97;44.21;99396.83;1710325;84;20867;-73
2022/08/26 09:29:30;;;;;;;25.15;3.58;;;;;;;32.10;43.88;99395.28;1706285;84;20911;-74
2022/08/26 09:32:20;;;;;;;8.45;3.10;;;;;;;32.19;41.87;99400.97;1709803;82;20939;-72
2022/08/26 09:34:57;;;;;;;14.35;3.27;;;;;;;32.27;39.75;99395.77;1705304;84;21889;-73
2022/08/26 09:37:43;;;;;;;13.48;3.22;;;;;;;32.31;37.61;99394.19;1709882;82;20998;-73
2022/08/26 09:40:56;;;;;;;12.13;3.30;;;;;;;32.38;38.32;99395.92;1710308;83;21452;-77
2022/08/26 09:43:30;;;;;;;11.70;2.80;;;;;;;32.49;39.18;99386.88;1710310;82;21616;-72
2022/08/26 09:46:22;;;;;;;12.65;2.83;;;;;;;32.59;38.30;99386.25;1710521;84;20987;-76
2022/08/26 09:48:50;;;;;;;12.15;2.98;;;;;;;32.66;38.07;99389.59;1710161;84;20955;-76
2022/08/26 09:51:32;;;;;;;24.02;2.58;;;;;;;32.76;37.81;99394.62;1710042;84;21085;-72
2022/08/26 09:54:01;;;;;;;11.90;3.17;;;;;;;32.82;35.24;99385.44;1710324;84;20938;-79
2022/08/26 09:56:37;;;;;;;13.38;2.00;;;;;;;32.86;34.32;99392.54;1710271;82;21074;-72
2022/08/26 09:59:11;;;;;;;9.98;2.17;;;;;;;32.91;34.26;99379.69;1706049;84;20994;-76
2022/08/26 10:01:41;;;;;;;12.30;2.52;;;;;;;33.00;33.97;99371.12;1706286;84;20971;-75
2022/08/26 10:04:21;;;;;;;13.45;2.50;;;;;;;33.03;33.15;99378.70;1709895;84;20912;-73
2022/08/26 10:07:04;;;;;;;13.65;2.60;;;;;;;33.08;33.05;99386.47;1710302;84;21018;-72
2022/08/26 10:09:39;;;;;;;20.23;2.65;;;;;;;33.13;32.71;99386.63;1709440;82;21162;-75
2022/08/26 10:12:20;;;;;;;12.20;2.30;;;;;;;33.21;31.71;99387.09;1696218;84;20975;-79
2022/08/26 10:14:56;;;;;;;8.70;2.08;;;;;;;33.25;31.70;99379.12;1702789;84;21002;-75
2022/08/26 10:17:34;;;;;;;8.45;3.10;;;;;;;33.33;31.83;99386.72;1702938;84;20880;-78
2022/08/26 10:20:22;;;;;;;15.70;2.90;;;;;;;33.40;31.58;99379.20;1702926;84;21054;-72
2022/08/26 10:23:12;;;;;;;13.62;2.20;;;;;;;33.50;32.23;99384.25;1703076;84;21400;-76
2022/08/26 10:26:05;;;;;;;14.40;2.47;;;;;;;33.57;32.37;99389.45;1702637;84;20963;-76
2022/08/26 10:28:53;;;;;;;14.53;2.40;;;;;;;33.61;30.78;99383.70;1702434;83;20895;-75
2022/08/26 10:31:47;;;;;;;12.60;2.27;;;;;;;33.63;31.28;99386.87;1702740;84;21094;-76
2022/08/26 10:34:17;;;;;;;15.50;1.57;;;;;;;33.72;31.35;99391.77;1703134;84;20965;-72
2022/08/26 10:36:56;;;;;;;15.80;2.45;;;;;;;33.81;30.52;99390.92;1702678;83;21274;-73
2022/08/26 10:39:49;;;;;;;15.03;3.05;;;;;;;33.81;29.58;99396.64;1697642;84;20999;-73
2022/08/26 10:42:39;;;;;;;12.73;2.47;;;;;;;33.80;28.90;99385.67;1702842;84;20999;-75
2022/08/26 10:45:13;;;;;;;9.88;1.98;;;;;;;33.75;28.38;99392.22;1702980;84;20935;-73
2022/08/26 10:48:00;;;;;;;6.37;2.20;;;;;;;33.79;28.25;99389.19;1702942;84;20966;-76
2022/08/26 10:50:37;;;;;;;11.45;1.50;;;;;;;33.84;28.73;99382.01;1681119;84;39223;-73
2022/08/26 10:53:48;;;;;;;15.00;2.42;;;;;;;33.88;26.90;99386.25;1702876;84;21450;-76
2022/08/26 10:56:41;;;;;;;4.70;1.70;;;;;;;33.90;27.20;99385.00;1699864;84;21420;-77
2022/08/26 10:59:45;;;;;;;14.28;2.05;;;;;;;33.98;26.82;99389.83;1702065;84;20973;-77
2022/08/26 11:02:44;;;;;;;6.05;1.80;;;;;;;34.01;27.10;99389.51;1703066;84;21026;-75
2022/08/26 11:05:20;;;;;;;3.87;1.77;;;;;;;34.05;27.89;99387.27;1702777;84;21809;-73
2022/08/26 11:07:54;;;;;;;7.67;1.95;;;;;;;34.10;28.01;99380.85;1703056;84;20887;-77
2022/08/26 11:10:26;;;;;;;6.00;1.67;;;;;;;34.17;27.98;99381.77;1707099;83;20898;-71
2022/08/26 11:12:59;;;;;;;10.20;1.87;;;;;;;34.28;28.38;99381.22;1717851;83;21444;-75
2022/08/26 11:15:32;;;;;;;6.42;1.95;;;;;;;34.35;28.44;99373.07;1717694;83;21416;-72
2022/08/26 11:18:06;;;;;;;7.87;1.62;;;;;;;34.43;28.92;99377.75;1717777;83;21193;-78
2022/08/26 11:20:43;;;;;;;7.35;2.02;;;;;;;34.47;27.96;99379.79;1717935;83;21026;-73
2022/08/26 11:23:27;;;;;;;4.47;1.70;;;;;;;34.51;28.47;99376.73;1717861;83;21455;-76
2022/08/26 11:26:12;;;;;;;12.60;2.55;;;;;;;34.62;28.96;99379.00;1712926;83;20987;-75
2022/08/26 11:28:47;;;;;;;14.85;3.20;;;;;;;34.64;28.51;99369.92;1717985;83;20974;-72
2022/08/26 11:31:29;;;;;;;6.22;1.80;;;;;;;34.62;28.21;99374.71;1717767;83;21447;-76
2022/08/26 11:34:07;;;;;;;7.00;2.10;;;;;;;34.60;27.78;99378.06;1713446;83;20903;-78
2022/08/26 11:36:48;;;;;;;10.65;1.87;;;;;;;34.63;27.83;99372.02;1717844;83;20931;-79
2022/08/26 11:39:30;;;;;;;7.85;2.40;;;;;;;34.65;26.98;99367.23;1718023;83;20938;-74
2022/08/26 11:42:04;;;;;;;7.35;1.70;;;;;;;34.70;26.51;99367.98;1693576;83;21483;-74
2022/08/26 11:44:41;;;;;;;4.65;2.02;;;;;;;34.71;26.77;99356.70;1716238;82;21160;-74
2022/08/26 11:47:09;;;;;;;26.75;2.98;;;;;;;34.70;25.60;99365.12;1717702;83;21506;-76
2022/08/26 11:49:36;;;;;;;7.17;2.20;;;;;;;34.66;25.05;99359.59;1718055;83;20942;-76
2022/08/26 11:52:19;;;;;;;11.78;1.95;;;;;;;34.64;25.04;99365.01;1693605;83;21030;-75
2022/08/26 11:55:07;;;;;;;6.65;2.75;;;;;;;34.65;24.42;99370.86;1717916;83;20859;-74
2022/08/26 11:57:42;;;;;;;8.38;2.33;;;;;;;34.64;24.29;99362.14;1718085;83;21756;-77
2022/08/26 12:00:20;;;;;;;6.65;1.67;;;;;;;34.64;24.96;99352.77;1695077;83;21034;-72
2022/08/26 12:02:48;;;;;;;6.35;1.90;;;;;;;34.69;25.21;99362.89;1717770;83;21419;-78
2022/08/26 12:05:26;;;;;;;20.17;2.72;;;;;;;34.72;25.79;99366.22;1717735;83;20919;-73